sensor_id;sensor_type;location;lat;lon;timestamp;P1;durP1;ratioP1;P2;durP2;ratioP2
16856;SDS011;8544;51.312;12.276;2022-09-04T00:02:39;15.60;;;14.70;;
16856;SDS011;8544;51.312;12.276;2022-09-04T00:05:24;15.70;;;15.00;;
16856;SDS011;8544;51.312;12.276;2022-09-04T00:07:58;13.97;;;13.37;;
16856;SDS011;8544;51.312;12.276;2022-09-04T00:10:39;15.47;;;14.70;;
16856;SDS011;8544;51.312;12.276;2022-09-04T00:13:17;15.30;;;14.60;;
16856;SDS011;8544;51.312;12.276;2022-09-04T00:15:50;12.97;;;12.47;;
16856;SDS011;8544;51.312;12.276;2022-09-04T00:18:24;13.30;;;12.70;;
16856;SDS011;8544;51.312;12.276;2022-09-04T00:20:59;14.33;;;13.73;;
16856;SDS011;8544;51.312;12.276;2022-09-04T00:23:36;13.10;;;12.53;;
16856;SDS011;8544;51.312;12.276;2022-09-04T00:26:12;14.00;;;13.40;;
16856;SDS011;8544;51.312;12.276;2022-09-04T00:28:48;14.33;;;13.63;;
16856;SDS011;8544;51.312;12.276;2022-09-04T00:31:20;12.67;;;12.13;;
16856;SDS011;8544;51.312;12.276;2022-09-04T00:33:58;13.53;;;12.93;;
16856;SDS011;8544;51.312;12.276;2022-09-04T00:36:33;14.13;;;13.43;;
16856;SDS011;8544;51.312;12.276;2022-09-04T00:39:11;15.00;;;13.40;;
16856;SDS011;8544;51.312;12.276;2022-09-04T00:41:44;14.70;;;13.90;;
16856;SDS011;8544;51.312;12.276;2022-09-04T00:44:42;12.87;;;12.37;;
16856;SDS011;8544;51.312;12.276;2022-09-04T00:47:25;14.53;;;13.73;;
16856;SDS011;8544;51.312;12.276;2022-09-04T00:50:12;14.03;;;13.43;;
16856;SDS011;8544;51.312;12.276;2022-09-04T00:52:54;13.57;;;12.97;;
16856;SDS011;8544;51.312;12.276;2022-09-04T00:55:48;13.83;;;13.23;;
16856;SDS011;8544;51.312;12.276;2022-09-04T00:58:38;15.03;;;14.13;;
16856;SDS011;8544;51.312;12.276;2022-09-04T01:01:22;14.40;;;13.80;;
16856;SDS011;8544;51.312;12.276;2022-09-04T01:06:57;13.40;;;12.80;;
16856;SDS011;8544;51.312;12.276;2022-09-04T01:09:46;13.53;;;12.93;;
16856;SDS011;8544;51.312;12.276;2022-09-04T01:12:31;14.93;;;13.90;;
16856;SDS011;8544;51.312;12.276;2022-09-04T01:15:07;14.43;;;13.83;;
16856;SDS011;8544;51.312;12.276;2022-09-04T01:17:45;13.50;;;12.90;;
16856;SDS011;8544;51.312;12.276;2022-09-04T01:20:26;15.30;;;14.60;;
16856;SDS011;8544;51.312;12.276;2022-09-04T01:23:05;14.60;;;13.90;;
16856;SDS011;8544;51.312;12.276;2022-09-04T01:25:51;14.93;;;14.23;;
16856;SDS011;8544;51.312;12.276;2022-09-04T01:28:29;14.60;;;14.00;;
16856;SDS011;8544;51.312;12.276;2022-09-04T01:31:04;15.90;;;15.10;;
16856;SDS011;8544;51.312;12.276;2022-09-04T01:33:41;16.03;;;15.33;;
16856;SDS011;8544;51.312;12.276;2022-09-04T01:36:21;16.30;;;15.60;;
16856;SDS011;8544;51.312;12.276;2022-09-04T01:39:00;16.73;;;15.83;;
16856;SDS011;8544;51.312;12.276;2022-09-04T01:41:31;15.83;;;15.13;;
16856;SDS011;8544;51.312;12.276;2022-09-04T01:44:05;16.17;;;15.47;;
16856;SDS011;8544;51.312;12.276;2022-09-04T01:46:40;16.80;;;16.00;;
16856;SDS011;8544;51.312;12.276;2022-09-04T01:49:25;17.93;;;17.13;;
16856;SDS011;8544;51.312;12.276;2022-09-04T01:52:03;16.40;;;15.70;;
16856;SDS011;8544;51.312;12.276;2022-09-04T01:54:42;17.20;;;16.40;;
16856;SDS011;8544;51.312;12.276;2022-09-04T02:00:20;16.83;;;16.03;;
16856;SDS011;8544;51.312;12.276;2022-09-04T02:02:54;15.37;;;14.67;;
16856;SDS011;8544;51.312;12.276;2022-09-04T02:05:29;16.60;;;15.80;;
16856;SDS011;8544;51.312;12.276;2022-09-04T02:08:16;15.67;;;14.97;;
16856;SDS011;8544;51.312;12.276;2022-09-04T02:10:57;16.00;;;15.30;;
16856;SDS011;8544;51.312;12.276;2022-09-04T02:13:33;14.57;;;13.97;;
16856;SDS011;8544;51.312;12.276;2022-09-04T02:16:11;15.07;;;14.37;;
16856;SDS011;8544;51.312;12.276;2022-09-04T02:18:47;14.87;;;14.17;;
16856;SDS011;8544;51.312;12.276;2022-09-04T02:21:24;14.47;;;13.87;;
16856;SDS011;8544;51.312;12.276;2022-09-04T02:24:00;14.80;;;14.10;;
16856;SDS011;8544;51.312;12.276;2022-09-04T02:26:35;15.37;;;14.53;;
16856;SDS011;8544;51.312;12.276;2022-09-04T02:29:10;14.57;;;13.97;;
16856;SDS011;8544;51.312;12.276;2022-09-04T02:31:49;15.50;;;14.80;;
16856;SDS011;8544;51.312;12.276;2022-09-04T02:34:24;13.90;;;13.30;;
16856;SDS011;8544;51.312;12.276;2022-09-04T02:36:59;15.47;;;14.60;;
16856;SDS011;8544;51.312;12.276;2022-09-04T02:39:38;15.30;;;14.60;;
16856;SDS011;8544;51.312;12.276;2022-09-04T02:42:17;14.33;;;13.73;;
16856;SDS011;8544;51.312;12.276;2022-09-04T02:44:55;14.50;;;13.80;;
16856;SDS011;8544;51.312;12.276;2022-09-04T02:47:32;14.90;;;14.10;;
16856;SDS011;8544;51.312;12.276;2022-09-04T02:50:13;15.67;;;14.97;;
16856;SDS011;8544;51.312;12.276;2022-09-04T02:53:00;15.87;;;15.03;;
16856;SDS011;8544;51.312;12.276;2022-09-04T02:55:46;14.93;;;14.23;;
16856;SDS011;8544;51.312;12.276;2022-09-04T02:58:26;16.13;;;15.37;;
16856;SDS011;8544;51.312;12.276;2022-09-04T03:01:09;26.20;;;16.30;;
16856;SDS011;8544;51.312;12.276;2022-09-04T03:03:42;14.33;;;13.73;;
16856;SDS011;8544;51.312;12.276;2022-09-04T03:06:17;15.40;;;14.70;;
16856;SDS011;8544;51.312;12.276;2022-09-04T03:08:52;15.83;;;15.13;;
16856;SDS011;8544;51.312;12.276;2022-09-04T03:11:25;17.63;;;16.73;;
16856;SDS011;8544;51.312;12.276;2022-09-04T03:14:02;17.47;;;16.67;;
16856;SDS011;8544;51.312;12.276;2022-09-04T03:16:40;17.37;;;16.57;;
16856;SDS011;8544;51.312;12.276;2022-09-04T03:19:13;19.10;;;17.60;;
16856;SDS011;8544;51.312;12.276;2022-09-04T03:21:48;19.57;;;18.33;;
16856;SDS011;8544;51.312;12.276;2022-09-04T03:24:21;19.67;;;18.67;;
16856;SDS011;8544;51.312;12.276;2022-09-04T03:26:52;20.23;;;19.23;;
16856;SDS011;8544;51.312;12.276;2022-09-04T03:29:25;21.03;;;20.03;;
16856;SDS011;8544;51.312;12.276;2022-09-04T03:32:04;21.67;;;20.60;;
16856;SDS011;8544;51.312;12.276;2022-09-04T03:34:45;24.87;;;23.67;;
16856;SDS011;8544;51.312;12.276;2022-09-04T03:37:29;25.93;;;24.63;;
16856;SDS011;8544;51.312;12.276;2022-09-04T03:40:12;26.10;;;24.80;;
16856;SDS011;8544;51.312;12.276;2022-09-04T03:43:01;28.30;;;26.87;;
16856;SDS011;8544;51.312;12.276;2022-09-04T03:45:41;27.10;;;25.77;;
16856;SDS011;8544;51.312;12.276;2022-09-04T03:48:28;26.60;;;25.30;;
16856;SDS011;8544;51.312;12.276;2022-09-04T03:51:08;28.00;;;26.53;;
16856;SDS011;8544;51.312;12.276;2022-09-04T03:53:50;29.20;;;27.70;;
16856;SDS011;8544;51.312;12.276;2022-09-04T03:56:35;40.73;;;38.60;;
16856;SDS011;8544;51.312;12.276;2022-09-04T03:59:27;25.07;;;23.83;;
16856;SDS011;8544;51.312;12.276;2022-09-04T04:02:10;25.27;;;24.00;;
16856;SDS011;8544;51.312;12.276;2022-09-04T04:05:13;33.80;;;31.93;;
16856;SDS011;8544;51.312;12.276;2022-09-04T04:08:02;34.73;;;32.93;;
16856;SDS011;8544;51.312;12.276;2022-09-04T04:10:55;32.00;;;30.33;;
16856;SDS011;8544;51.312;12.276;2022-09-04T04:13:33;24.40;;;23.20;;
16856;SDS011;8544;51.312;12.276;2022-09-04T04:16:23;21.13;;;20.03;;
16856;SDS011;8544;51.312;12.276;2022-09-04T04:19:03;27.30;;;25.90;;
16856;SDS011;8544;51.312;12.276;2022-09-04T04:21:57;18.23;;;17.33;;
16856;SDS011;8544;51.312;12.276;2022-09-04T04:24:44;18.63;;;17.67;;
16856;SDS011;8544;51.312;12.276;2022-09-04T04:27:34;20.03;;;19.13;;
16856;SDS011;8544;51.312;12.276;2022-09-04T04:30:19;20.33;;;19.37;;
16856;SDS011;8544;51.312;12.276;2022-09-04T04:32:57;35.60;;;33.73;;
16856;SDS011;8544;51.312;12.276;2022-09-04T04:35:43;20.33;;;19.33;;
16856;SDS011;8544;51.312;12.276;2022-09-04T04:38:34;21.90;;;20.80;;
16856;SDS011;8544;51.312;12.276;2022-09-04T04:41:19;21.90;;;20.83;;
16856;SDS011;8544;51.312;12.276;2022-09-04T04:44:02;25.13;;;23.90;;
16856;SDS011;8544;51.312;12.276;2022-09-04T04:46:44;28.17;;;26.67;;
16856;SDS011;8544;51.312;12.276;2022-09-04T04:49:31;22.03;;;20.97;;
16856;SDS011;8544;51.312;12.276;2022-09-04T04:52:19;27.13;;;25.80;;
16856;SDS011;8544;51.312;12.276;2022-09-04T04:54:59;27.40;;;26.00;;
16856;SDS011;8544;51.312;12.276;2022-09-04T04:57:35;30.37;;;28.80;;
16856;SDS011;8544;51.312;12.276;2022-09-04T05:00:13;32.10;;;30.50;;
16856;SDS011;8544;51.312;12.276;2022-09-04T05:02:57;27.40;;;26.00;;
16856;SDS011;8544;51.312;12.276;2022-09-04T05:05:44;23.67;;;22.47;;
16856;SDS011;8544;51.312;12.276;2022-09-04T05:08:25;20.17;;;19.07;;
16856;SDS011;8544;51.312;12.276;2022-09-04T05:11:05;19.03;;;18.13;;
16856;SDS011;8544;51.312;12.276;2022-09-04T05:13:38;19.50;;;18.50;;
16856;SDS011;8544;51.312;12.276;2022-09-04T05:16:19;19.80;;;18.90;;
16856;SDS011;8544;51.312;12.276;2022-09-04T05:18:54;18.67;;;17.77;;
16856;SDS011;8544;51.312;12.276;2022-09-04T05:21:29;18.67;;;17.77;;
16856;SDS011;8544;51.312;12.276;2022-09-04T05:24:04;19.63;;;18.63;;
16856;SDS011;8544;51.312;12.276;2022-09-04T05:26:45;21.03;;;20.03;;
16856;SDS011;8544;51.312;12.276;2022-09-04T05:29:21;21.97;;;20.87;;
16856;SDS011;8544;51.312;12.276;2022-09-04T05:32:00;22.60;;;21.43;;
16856;SDS011;8544;51.312;12.276;2022-09-04T05:34:47;22.27;;;21.17;;
16856;SDS011;8544;51.312;12.276;2022-09-04T05:37:27;24.00;;;22.80;;
16856;SDS011;8544;51.312;12.276;2022-09-04T05:40:01;22.37;;;21.17;;
16856;SDS011;8544;51.312;12.276;2022-09-04T05:42:40;24.00;;;22.80;;
16856;SDS011;8544;51.312;12.276;2022-09-04T05:45:13;24.90;;;23.60;;
16856;SDS011;8544;51.312;12.276;2022-09-04T05:47:56;25.97;;;24.53;;
16856;SDS011;8544;51.312;12.276;2022-09-04T05:59:36;30.90;;;29.23;;
16856;SDS011;8544;51.312;12.276;2022-09-04T06:02:31;23.90;;;22.70;;
16856;SDS011;8544;51.312;12.276;2022-09-04T06:05:21;23.10;;;21.90;;
16856;SDS011;8544;51.312;12.276;2022-09-04T06:07:59;21.30;;;20.30;;
16856;SDS011;8544;51.312;12.276;2022-09-04T06:10:36;21.27;;;20.23;;
16856;SDS011;8544;51.312;12.276;2022-09-04T06:13:27;23.03;;;21.07;;
16856;SDS011;8544;51.312;12.276;2022-09-04T06:19:22;21.87;;;20.73;;
16856;SDS011;8544;51.312;12.276;2022-09-04T06:22:08;19.13;;;18.20;;
16856;SDS011;8544;51.312;12.276;2022-09-04T06:24:59;17.63;;;16.80;;
16856;SDS011;8544;51.312;12.276;2022-09-04T06:27:58;17.07;;;16.27;;
16856;SDS011;8544;51.312;12.276;2022-09-04T06:30:41;16.30;;;15.60;;
16856;SDS011;8544;51.312;12.276;2022-09-04T06:39:21;17.40;;;16.60;;
16856;SDS011;8544;51.312;12.276;2022-09-04T06:42:10;16.90;;;16.10;;
16856;SDS011;8544;51.312;12.276;2022-09-04T06:44:53;16.50;;;15.70;;
16856;SDS011;8544;51.312;12.276;2022-09-04T06:47:35;17.27;;;16.47;;
16856;SDS011;8544;51.312;12.276;2022-09-04T06:50:19;16.80;;;16.00;;
16856;SDS011;8544;51.312;12.276;2022-09-04T06:52:58;15.90;;;15.13;;
16856;SDS011;8544;51.312;12.276;2022-09-04T06:55:37;17.13;;;16.33;;
16856;SDS011;8544;51.312;12.276;2022-09-04T06:58:22;19.77;;;18.13;;
16856;SDS011;8544;51.312;12.276;2022-09-04T07:01:09;17.23;;;16.33;;
16856;SDS011;8544;51.312;12.276;2022-09-04T07:03:48;16.23;;;15.43;;
16856;SDS011;8544;51.312;12.276;2022-09-04T07:06:35;17.73;;;16.90;;
16856;SDS011;8544;51.312;12.276;2022-09-04T07:09:16;23.90;;;22.70;;
16856;SDS011;8544;51.312;12.276;2022-09-04T07:11:53;20.93;;;19.90;;
16856;SDS011;8544;51.312;12.276;2022-09-04T07:14:48;21.70;;;20.63;;
16856;SDS011;8544;51.312;12.276;2022-09-04T07:17:39;25.90;;;24.60;;
16856;SDS011;8544;51.312;12.276;2022-09-04T07:20:27;31.37;;;29.53;;
16856;SDS011;8544;51.312;12.276;2022-09-04T07:23:03;32.57;;;30.23;;
16856;SDS011;8544;51.312;12.276;2022-09-04T07:25:44;28.20;;;26.37;;
16856;SDS011;8544;51.312;12.276;2022-09-04T07:28:28;24.63;;;23.27;;
16856;SDS011;8544;51.312;12.276;2022-09-04T07:31:03;22.20;;;21.10;;
16856;SDS011;8544;51.312;12.276;2022-09-04T07:33:37;22.67;;;21.53;;
16856;SDS011;8544;51.312;12.276;2022-09-04T07:36:13;22.23;;;21.13;;
16856;SDS011;8544;51.312;12.276;2022-09-04T07:38:56;21.77;;;20.73;;
16856;SDS011;8544;51.312;12.276;2022-09-04T07:41:28;23.07;;;21.87;;
16856;SDS011;8544;51.312;12.276;2022-09-04T07:44:02;22.47;;;21.37;;
16856;SDS011;8544;51.312;12.276;2022-09-04T07:46:38;21.60;;;20.60;;
16856;SDS011;8544;51.312;12.276;2022-09-04T07:49:14;20.60;;;19.60;;
16856;SDS011;8544;51.312;12.276;2022-09-04T07:51:51;19.43;;;18.53;;
16856;SDS011;8544;51.312;12.276;2022-09-04T07:54:28;18.83;;;17.93;;
16856;SDS011;8544;51.312;12.276;2022-09-04T07:57:11;19.63;;;18.63;;
16856;SDS011;8544;51.312;12.276;2022-09-04T08:00:00;25.60;;;24.30;;
16856;SDS011;8544;51.312;12.276;2022-09-04T08:02:37;37.85;;;35.85;;
16856;SDS011;8544;51.312;12.276;2022-09-04T08:05:22;33.55;;;31.75;;
16856;SDS011;8544;51.312;12.276;2022-09-04T08:08:04;34.42;;;32.55;;
16856;SDS011;8544;51.312;12.276;2022-09-04T08:11:04;33.15;;;31.45;;
16856;SDS011;8544;51.312;12.276;2022-09-04T08:13:56;35.80;;;33.90;;
16856;SDS011;8544;51.312;12.276;2022-09-04T08:16:47;35.88;;;33.95;;
16856;SDS011;8544;51.312;12.276;2022-09-04T08:19:36;42.38;;;40.08;;
16856;SDS011;8544;51.312;12.276;2022-09-04T08:22:11;59.33;;;56.08;;
16856;SDS011;8544;51.312;12.276;2022-09-04T08:25:02;70.55;;;66.70;;
16856;SDS011;8544;51.312;12.276;2022-09-04T08:27:50;67.43;;;63.72;;
16856;SDS011;8544;51.312;12.276;2022-09-04T08:30:33;62.55;;;59.10;;
16856;SDS011;8544;51.312;12.276;2022-09-04T08:33:14;55.35;;;52.35;;
16856;SDS011;8544;51.312;12.276;2022-09-04T08:36:06;56.63;;;53.53;;
16856;SDS011;8544;51.312;12.276;2022-09-04T08:38:47;58.15;;;54.95;;
16856;SDS011;8544;51.312;12.276;2022-09-04T08:50:45;57.30;;;54.05;;
16856;SDS011;8544;51.312;12.276;2022-09-04T08:53:35;52.50;;;49.67;;
16856;SDS011;8544;51.312;12.276;2022-09-04T08:56:35;49.38;;;46.70;;
16856;SDS011;8544;51.312;12.276;2022-09-04T08:59:16;53.85;;;50.92;;
16856;SDS011;8544;51.312;12.276;2022-09-04T09:02:24;51.53;;;48.63;;
16856;SDS011;8544;51.312;12.276;2022-09-04T09:05:19;51.25;;;48.47;;
16856;SDS011;8544;51.312;12.276;2022-09-04T09:08:20;54.28;;;50.75;;
16856;SDS011;8544;51.312;12.276;2022-09-04T09:11:01;51.35;;;48.55;;
16856;SDS011;8544;51.312;12.276;2022-09-04T09:14:15;49.92;;;47.22;;
16856;SDS011;8544;51.312;12.276;2022-09-04T09:17:01;57.95;;;54.67;;
16856;SDS011;8544;51.312;12.276;2022-09-04T09:19:45;48.50;;;45.85;;
16856;SDS011;8544;51.312;12.276;2022-09-04T09:25:15;46.78;;;44.28;;
16856;SDS011;8544;51.312;12.276;2022-09-04T09:27:56;50.90;;;48.15;;
16856;SDS011;8544;51.312;12.276;2022-09-04T09:34:03;49.30;;;46.60;;
16856;SDS011;8544;51.312;12.276;2022-09-04T09:43:18;53.13;;;50.17;;
16856;SDS011;8544;51.312;12.276;2022-09-04T09:46:20;56.47;;;53.40;;
16856;SDS011;8544;51.312;12.276;2022-09-04T09:49:29;54.55;;;51.50;;
16856;SDS011;8544;51.312;12.276;2022-09-04T10:01:25;67.30;;;63.63;;
16856;SDS011;8544;51.312;12.276;2022-09-04T10:04:19;79.38;;;74.97;;
16856;SDS011;8544;51.312;12.276;2022-09-04T10:07:14;71.15;;;67.20;;
16856;SDS011;8544;51.312;12.276;2022-09-04T10:10:16;90.65;;;85.70;;
16856;SDS011;8544;51.312;12.276;2022-09-04T10:13:09;70.60;;;66.72;;
16856;SDS011;8544;51.312;12.276;2022-09-04T10:16:08;58.75;;;55.53;;
16856;SDS011;8544;51.312;12.276;2022-09-04T10:22:17;45.97;;;43.47;;
16856;SDS011;8544;51.312;12.276;2022-09-04T10:25:18;48.22;;;45.63;;
16856;SDS011;8544;51.312;12.276;2022-09-04T10:28:07;47.13;;;44.40;;
16856;SDS011;8544;51.312;12.276;2022-09-04T10:31:05;46.88;;;44.38;;
16856;SDS011;8544;51.312;12.276;2022-09-04T10:33:50;46.50;;;43.90;;
16856;SDS011;8544;51.312;12.276;2022-09-04T10:36:33;49.83;;;46.20;;
16856;SDS011;8544;51.312;12.276;2022-09-04T10:39:15;48.53;;;45.92;;
16856;SDS011;8544;51.312;12.276;2022-09-04T10:42:10;45.67;;;43.17;;
16856;SDS011;8544;51.312;12.276;2022-09-04T10:44:55;45.17;;;42.78;;
16856;SDS011;8544;51.312;12.276;2022-09-04T10:47:53;46.95;;;44.35;;
16856;SDS011;8544;51.312;12.276;2022-09-04T10:53:44;48.95;;;46.30;;
16856;SDS011;8544;51.312;12.276;2022-09-04T10:56:21;50.38;;;46.25;;
16856;SDS011;8544;51.312;12.276;2022-09-04T10:59:05;49.80;;;47.10;;
16856;SDS011;8544;51.312;12.276;2022-09-04T11:02:01;46.72;;;44.15;;
16856;SDS011;8544;51.312;12.276;2022-09-04T11:08:16;50.50;;;47.78;;
16856;SDS011;8544;51.312;12.276;2022-09-04T11:11:06;50.00;;;47.20;;
16856;SDS011;8544;51.312;12.276;2022-09-04T11:13:49;43.55;;;41.25;;
16856;SDS011;8544;51.312;12.276;2022-09-04T11:19:33;50.85;;;42.30;;
16856;SDS011;8544;51.312;12.276;2022-09-04T11:25:22;47.20;;;44.65;;
16856;SDS011;8544;51.312;12.276;2022-09-04T11:31:17;52.40;;;49.50;;
16856;SDS011;8544;51.312;12.276;2022-09-04T11:40:09;49.95;;;47.25;;
16856;SDS011;8544;51.312;12.276;2022-09-04T11:42:56;47.97;;;45.38;;
16856;SDS011;8544;51.312;12.276;2022-09-04T11:48:51;44.08;;;41.70;;
16856;SDS011;8544;51.312;12.276;2022-09-04T11:54:32;47.65;;;45.08;;
16856;SDS011;8544;51.312;12.276;2022-09-04T11:57:25;48.88;;;46.25;;
16856;SDS011;8544;51.312;12.276;2022-09-04T12:00:06;46.08;;;43.60;;
16856;SDS011;8544;51.312;12.276;2022-09-04T12:02:56;49.90;;;47.20;;
16856;SDS011;8544;51.312;12.276;2022-09-04T12:05:47;48.15;;;45.55;;
16856;SDS011;8544;51.312;12.276;2022-09-04T12:08:33;45.70;;;43.20;;
16856;SDS011;8544;51.312;12.276;2022-09-04T12:11:40;45.58;;;43.08;;
16856;SDS011;8544;51.312;12.276;2022-09-04T12:14:38;46.35;;;43.85;;
16856;SDS011;8544;51.312;12.276;2022-09-04T12:17:29;46.88;;;44.28;;
16856;SDS011;8544;51.312;12.276;2022-09-04T12:20:26;53.85;;;50.92;;
16856;SDS011;8544;51.312;12.276;2022-09-04T12:26:04;42.30;;;40.05;;
16856;SDS011;8544;51.312;12.276;2022-09-04T12:31:54;44.13;;;41.75;;
16856;SDS011;8544;51.312;12.276;2022-09-04T12:34:46;41.15;;;38.90;;
16856;SDS011;8544;51.312;12.276;2022-09-04T12:37:30;41.90;;;39.65;;
16856;SDS011;8544;51.312;12.276;2022-09-04T12:40:25;41.53;;;39.33;;
16856;SDS011;8544;51.312;12.276;2022-09-04T12:42:59;42.08;;;39.80;;
16856;SDS011;8544;51.312;12.276;2022-09-04T12:45:40;44.22;;;41.88;;
16856;SDS011;8544;51.312;12.276;2022-09-04T12:48:17;47.00;;;44.50;;
16856;SDS011;8544;51.312;12.276;2022-09-04T12:50:53;45.35;;;42.75;;
16856;SDS011;8544;51.312;12.276;2022-09-04T12:53:35;44.75;;;42.28;;
16856;SDS011;8544;51.312;12.276;2022-09-04T12:56:19;43.08;;;40.78;;
16856;SDS011;8544;51.312;12.276;2022-09-04T12:58:56;43.03;;;40.75;;
16856;SDS011;8544;51.312;12.276;2022-09-04T13:01:43;41.58;;;39.38;;
16856;SDS011;8544;51.312;12.276;2022-09-04T13:04:26;47.40;;;44.80;;
16856;SDS011;8544;51.312;12.276;2022-09-04T13:07:05;44.10;;;41.50;;
16856;SDS011;8544;51.312;12.276;2022-09-04T13:09:49;44.65;;;42.25;;
16856;SDS011;8544;51.312;12.276;2022-09-04T13:12:26;44.80;;;42.35;;
16856;SDS011;8544;51.312;12.276;2022-09-04T13:15:13;42.33;;;40.03;;
16856;SDS011;8544;51.312;12.276;2022-09-04T13:17:52;41.67;;;39.47;;
16856;SDS011;8544;51.312;12.276;2022-09-04T13:20:33;41.67;;;39.42;;
16856;SDS011;8544;51.312;12.276;2022-09-04T13:23:24;42.20;;;39.90;;
16856;SDS011;8544;51.312;12.276;2022-09-04T13:26:10;42.78;;;40.40;;
16856;SDS011;8544;51.312;12.276;2022-09-04T13:28:57;39.45;;;37.38;;
16856;SDS011;8544;51.312;12.276;2022-09-04T13:31:54;48.63;;;46.03;;
16856;SDS011;8544;51.312;12.276;2022-09-04T13:34:34;39.78;;;37.67;;
16856;SDS011;8544;51.312;12.276;2022-09-04T13:37:14;39.15;;;37.05;;
16856;SDS011;8544;51.312;12.276;2022-09-04T13:42:57;39.10;;;37.03;;
16856;SDS011;8544;51.312;12.276;2022-09-04T13:45:46;38.22;;;36.17;;
16856;SDS011;8544;51.312;12.276;2022-09-04T13:48:19;40.30;;;38.15;;
16856;SDS011;8544;51.312;12.276;2022-09-04T13:50:59;41.45;;;39.17;;
16856;SDS011;8544;51.312;12.276;2022-09-04T13:53:42;37.22;;;35.20;;
16856;SDS011;8544;51.312;12.276;2022-09-04T13:56:22;39.33;;;37.22;;
16856;SDS011;8544;51.312;12.276;2022-09-04T13:58:56;39.72;;;37.42;;
16856;SDS011;8544;51.312;12.276;2022-09-04T14:01:35;38.80;;;36.75;;
16856;SDS011;8544;51.312;12.276;2022-09-04T14:04:12;38.53;;;36.53;;
16856;SDS011;8544;51.312;12.276;2022-09-04T14:06:44;39.83;;;37.72;;
16856;SDS011;8544;51.312;12.276;2022-09-04T14:09:14;37.50;;;35.53;;
16856;SDS011;8544;51.312;12.276;2022-09-04T14:11:59;38.13;;;36.13;;
16856;SDS011;8544;51.312;12.276;2022-09-04T14:14:48;36.95;;;35.00;;
16856;SDS011;8544;51.312;12.276;2022-09-04T14:17:33;37.85;;;35.85;;
16856;SDS011;8544;51.312;12.276;2022-09-04T14:20:07;38.15;;;36.15;;
16856;SDS011;8544;51.312;12.276;2022-09-04T14:22:48;36.63;;;34.70;;
16856;SDS011;8544;51.312;12.276;2022-09-04T14:25:25;40.05;;;37.88;;
16856;SDS011;8544;51.312;12.276;2022-09-04T14:27:59;37.40;;;35.30;;
16856;SDS011;8544;51.312;12.276;2022-09-04T14:30:35;38.80;;;36.72;;
16856;SDS011;8544;51.312;12.276;2022-09-04T14:33:13;36.33;;;34.42;;
16856;SDS011;8544;51.312;12.276;2022-09-04T14:36:03;35.95;;;34.05;;
16856;SDS011;8544;51.312;12.276;2022-09-04T14:38:51;40.88;;;38.67;;
16856;SDS011;8544;51.312;12.276;2022-09-04T14:41:37;38.20;;;36.10;;
16856;SDS011;8544;51.312;12.276;2022-09-04T14:44:26;41.10;;;38.70;;
16856;SDS011;8544;51.312;12.276;2022-09-04T14:47:10;37.85;;;35.85;;
16856;SDS011;8544;51.312;12.276;2022-09-04T14:49:51;37.83;;;35.83;;
16856;SDS011;8544;51.312;12.276;2022-09-04T14:52:22;37.40;;;35.40;;
16856;SDS011;8544;51.312;12.276;2022-09-04T14:54:54;38.65;;;36.55;;
16856;SDS011;8544;51.312;12.276;2022-09-04T14:57:26;38.45;;;36.35;;
16856;SDS011;8544;51.312;12.276;2022-09-04T15:00:03;40.67;;;38.50;;
16856;SDS011;8544;51.312;12.276;2022-09-04T15:02:41;41.25;;;39.05;;
16856;SDS011;8544;51.312;12.276;2022-09-04T15:05:16;38.80;;;36.78;;
16856;SDS011;8544;51.312;12.276;2022-09-04T15:07:49;39.10;;;37.00;;
16856;SDS011;8544;51.312;12.276;2022-09-04T15:10:21;38.15;;;36.15;;
16856;SDS011;8544;51.312;12.276;2022-09-04T15:12:56;37.90;;;35.90;;
16856;SDS011;8544;51.312;12.276;2022-09-04T15:15:42;37.15;;;35.20;;
16856;SDS011;8544;51.312;12.276;2022-09-04T15:18:18;38.33;;;36.33;;
16856;SDS011;8544;51.312;12.276;2022-09-04T15:20:50;39.90;;;37.80;;
16856;SDS011;8544;51.312;12.276;2022-09-04T15:23:25;37.53;;;35.53;;
16856;SDS011;8544;51.312;12.276;2022-09-04T15:26:00;37.75;;;35.75;;
16856;SDS011;8544;51.312;12.276;2022-09-04T15:28:36;39.05;;;37.00;;
16856;SDS011;8544;51.312;12.276;2022-09-04T15:31:09;37.58;;;35.58;;
16856;SDS011;8544;51.312;12.276;2022-09-04T15:33:43;37.90;;;35.88;;
16856;SDS011;8544;51.312;12.276;2022-09-04T15:36:14;36.65;;;34.75;;
16856;SDS011;8544;51.312;12.276;2022-09-04T15:38:46;37.75;;;35.75;;
16856;SDS011;8544;51.312;12.276;2022-09-04T15:41:21;37.10;;;35.20;;
16856;SDS011;8544;51.312;12.276;2022-09-04T15:44:07;39.35;;;37.25;;
16856;SDS011;8544;51.312;12.276;2022-09-04T15:46:42;40.00;;;37.80;;
16856;SDS011;8544;51.312;12.276;2022-09-04T15:49:23;41.28;;;39.03;;
16856;SDS011;8544;51.312;12.276;2022-09-04T15:52:01;41.05;;;38.80;;
16856;SDS011;8544;51.312;12.276;2022-09-04T15:57:41;41.75;;;39.55;;
16856;SDS011;8544;51.312;12.276;2022-09-04T16:00:22;40.72;;;38.53;;
16856;SDS011;8544;51.312;12.276;2022-09-04T16:02:53;43.92;;;41.53;;
16856;SDS011;8544;51.312;12.276;2022-09-04T16:05:29;44.45;;;42.05;;
16856;SDS011;8544;51.312;12.276;2022-09-04T16:08:11;44.00;;;41.60;;
16856;SDS011;8544;51.312;12.276;2022-09-04T16:10:52;43.13;;;40.83;;
16856;SDS011;8544;51.312;12.276;2022-09-04T16:13:39;43.40;;;41.10;;
16856;SDS011;8544;51.312;12.276;2022-09-04T16:16:11;42.72;;;40.42;;
16856;SDS011;8544;51.312;12.276;2022-09-04T16:18:46;44.47;;;42.08;;
16856;SDS011;8544;51.312;12.276;2022-09-04T16:21:21;42.78;;;40.47;;
16856;SDS011;8544;51.312;12.276;2022-09-04T16:23:57;42.70;;;40.40;;
16856;SDS011;8544;51.312;12.276;2022-09-04T16:26:34;43.33;;;41.03;;
16856;SDS011;8544;51.312;12.276;2022-09-04T16:29:05;43.33;;;41.03;;
16856;SDS011;8544;51.312;12.276;2022-09-04T16:31:37;44.70;;;42.25;;
16856;SDS011;8544;51.312;12.276;2022-09-04T16:34:07;44.22;;;41.83;;
16856;SDS011;8544;51.312;12.276;2022-09-04T16:36:52;40.80;;;38.67;;
16856;SDS011;8544;51.312;12.276;2022-09-04T16:39:28;40.83;;;38.67;;
16856;SDS011;8544;51.312;12.276;2022-09-04T16:42:10;38.47;;;36.38;;
16856;SDS011;8544;51.312;12.276;2022-09-04T16:44:46;38.40;;;36.33;;
16856;SDS011;8544;51.312;12.276;2022-09-04T16:47:21;40.50;;;38.33;;
16856;SDS011;8544;51.312;12.276;2022-09-04T16:49:58;35.58;;;33.72;;
16856;SDS011;8544;51.312;12.276;2022-09-04T16:52:50;33.17;;;31.45;;
16856;SDS011;8544;51.312;12.276;2022-09-04T16:55:40;30.13;;;28.58;;
16856;SDS011;8544;51.312;12.276;2022-09-04T16:58:18;32.65;;;30.95;;
16856;SDS011;8544;51.312;12.276;2022-09-04T17:01:03;32.85;;;31.17;;
16856;SDS011;8544;51.312;12.276;2022-09-04T17:03:48;31.50;;;29.85;;
16856;SDS011;8544;51.312;12.276;2022-09-04T17:06:41;31.50;;;29.80;;
16856;SDS011;8544;51.312;12.276;2022-09-04T17:09:28;28.38;;;26.92;;
16856;SDS011;8544;51.312;12.276;2022-09-04T17:12:02;27.08;;;25.73;;
16856;SDS011;8544;51.312;12.276;2022-09-04T17:14:44;27.27;;;25.90;;
16856;SDS011;8544;51.312;12.276;2022-09-04T17:17:20;28.98;;;27.48;;
16856;SDS011;8544;51.312;12.276;2022-09-04T17:19:59;25.92;;;24.63;;
16856;SDS011;8544;51.312;12.276;2022-09-04T17:22:28;26.48;;;25.17;;
16856;SDS011;8544;51.312;12.276;2022-09-04T17:25:26;27.60;;;26.20;;
16856;SDS011;8544;51.312;12.276;2022-09-04T17:28:21;27.10;;;25.73;;